Accueil
METAR-TAF:

METAR-TAF

Aéroports :

Aéroport de Paris-Beauvais

Beauvais, France

latitude: 49-28N, longitude: 002-07E, altitude: 109 m

Observation

Le bulletin a été fait il y a 39 minutes, à 13:30 UTC
Vent 3 kt de direction variable
Température 25°C
Humidité 39%
Pression 1025 hPa
Visibilité 10 km ou plus
pas de nuages en-dessous de 1500 mètres et pas de cumulonimbus.

METAR: LFOB 221330Z AUTO VRB03KT CAVOK 25/10 Q1025 NOSIG

Heure: 16:09 (14:09 UTC)

Prévision

Le bulletin a été fait il y a 3 heures et 9 minutes, à 11:00 UTC
Prévision valable du 22 à 12 UTC au 23 à 12 UTC
Vent 3 kt de direction variable
Visibilité 10 km ou plus
pas de nuages en-dessous de 1500 mètres et pas de cumulonimbus.
Temporairement
du 22 à 16 UTC au 22 à 19 UTC
Vent 10 kt de nord

TAF: LFOB 221100Z 2212/2312 VRB03KT CAVOK TEMPO 2216/2219 36010KT

Observations et prévisions météorologiques de plus de 4000 aéroports (messages METAR et TAF).

Les stations disponibles sont représentées par des disques jaunes et rouges sur la carte.

Passer la souris dessus pour voir le nom de la station.

Cliquer dessus pour voir les observations et prévisions météorologiques.

Pour changer de carte: cliquez sur les boutons verts avec une croix noire pour zoomer, sur le bouton vert avec un tiret pour effectuer un zoom arrière, ou sur les flèches vertes pour les cartes adjacentes.


METAR-TAF: